sensor_id;sensor_type;location;lat;lon;timestamp;pressure;altitude;pressure_sealevel;temperature;humidity
22031;BME280;11179;52.106;21.024;2022-08-11T00:02:05;101321.63;;;13.71;63.39
22031;BME280;11179;52.106;21.024;2022-08-11T00:04:34;101325.97;;;13.66;63.64
22031;BME280;11179;52.106;21.024;2022-08-11T00:07:02;101319.63;;;13.66;63.72
22031;BME280;11179;52.106;21.024;2022-08-11T00:09:34;101321.78;;;13.64;63.85
22031;BME280;11179;52.106;21.024;2022-08-11T00:12:00;101321.47;;;13.60;63.75
22031;BME280;11179;52.106;21.024;2022-08-11T00:14:29;101327.53;;;13.57;63.83
22031;BME280;11179;52.106;21.024;2022-08-11T00:16:58;101328.25;;;13.53;63.75
22031;BME280;11179;52.106;21.024;2022-08-11T00:19:27;101323.81;;;13.52;64.02
22031;BME280;11179;52.106;21.024;2022-08-11T00:21:53;101319.38;;;13.51;64.03
22031;BME280;11179;52.106;21.024;2022-08-11T00:24:20;101324.91;;;13.51;64.31
22031;BME280;11179;52.106;21.024;2022-08-11T00:26:52;101319.63;;;13.49;64.17
22031;BME280;11179;52.106;21.024;2022-08-11T00:29:18;101322.63;;;13.48;64.28
22031;BME280;11179;52.106;21.024;2022-08-11T00:31:55;101320.09;;;13.41;64.43
22031;BME280;11179;52.106;21.024;2022-08-11T00:34:24;101318.91;;;13.37;64.36
22031;BME280;11179;52.106;21.024;2022-08-11T00:36:54;101316.97;;;13.38;64.42
22031;BME280;11179;52.106;21.024;2022-08-11T00:39:23;101323.34;;;13.38;64.63
22031;BME280;11179;52.106;21.024;2022-08-11T00:50:14;101327.88;;;13.27;64.56
22031;BME280;11179;52.106;21.024;2022-08-11T00:52:58;101325.38;;;13.26;64.65
22031;BME280;11179;52.106;21.024;2022-08-11T01:01:09;101321.19;;;13.23;64.83
22031;BME280;11179;52.106;21.024;2022-08-11T01:06:50;101312.28;;;13.16;64.94
22031;BME280;11179;52.106;21.024;2022-08-11T01:29:59;101329.75;;;12.88;65.20
22031;BME280;11179;52.106;21.024;2022-08-11T01:35:33;101329.88;;;12.82;65.31
22031;BME280;11179;52.106;21.024;2022-08-11T01:46:20;101325.41;;;12.76;65.28
22031;BME280;11179;52.106;21.024;2022-08-11T01:54:10;101330.22;;;12.69;65.66
22031;BME280;11179;52.106;21.024;2022-08-11T01:59:22;101326.03;;;12.66;65.65
22031;BME280;11179;52.106;21.024;2022-08-11T02:07:48;101331.72;;;12.59;65.76
22031;BME280;11179;52.106;21.024;2022-08-11T02:10:29;101326.22;;;12.59;65.94
22031;BME280;11179;52.106;21.024;2022-08-11T02:15:49;101327.38;;;12.64;65.96
22031;BME280;11179;52.106;21.024;2022-08-11T02:18:23;101329.88;;;12.65;66.00
22031;BME280;11179;52.106;21.024;2022-08-11T02:21:15;101316.84;;;12.60;66.03
22031;BME280;11179;52.106;21.024;2022-08-11T02:24:05;101330.28;;;12.57;65.85
22031;BME280;11179;52.106;21.024;2022-08-11T02:26:40;101332.69;;;12.53;65.97
22031;BME280;11179;52.106;21.024;2022-08-11T02:37:28;101327.13;;;12.48;66.31
22031;BME280;11179;52.106;21.024;2022-08-11T02:47:57;101337.78;;;12.45;66.00
22031;BME280;11179;52.106;21.024;2022-08-11T02:50:55;101339.09;;;12.42;66.15
22031;BME280;11179;52.106;21.024;2022-08-11T03:02:03;101338.72;;;12.50;66.22
22031;BME280;11179;52.106;21.024;2022-08-11T03:07:32;101342.56;;;12.49;66.61
22031;BME280;11179;52.106;21.024;2022-08-11T03:19:06;101345.50;;;12.59;66.77
22031;BME280;11179;52.106;21.024;2022-08-11T03:24:55;101342.31;;;12.68;67.32
22031;BME280;11179;52.106;21.024;2022-08-11T03:27:32;101346.09;;;12.78;67.18
22031;BME280;11179;52.106;21.024;2022-08-11T03:32:29;101344.38;;;12.89;67.44
22031;BME280;11179;52.106;21.024;2022-08-11T03:34:58;101346.34;;;12.93;67.33
22031;BME280;11179;52.106;21.024;2022-08-11T03:37:50;101348.59;;;12.96;67.48
22031;BME280;11179;52.106;21.024;2022-08-11T03:43:36;101342.16;;;13.08;67.60
22031;BME280;11179;52.106;21.024;2022-08-11T03:46:24;101345.59;;;13.15;67.30
22031;BME280;11179;52.106;21.024;2022-08-11T04:08:42;101349.53;;;15.30;66.53
22031;BME280;11179;52.106;21.024;2022-08-11T04:49:12;101350.84;;;21.95;50.58
22031;BME280;11179;52.106;21.024;2022-08-11T05:13:31;101349.66;;;24.76;43.71
22031;BME280;11179;52.106;21.024;2022-08-11T05:16:19;101353.31;;;25.02;43.23
22031;BME280;11179;52.106;21.024;2022-08-11T05:19:06;101356.75;;;25.16;42.49
22031;BME280;11179;52.106;21.024;2022-08-11T05:21:53;101357.34;;;25.48;41.46
22031;BME280;11179;52.106;21.024;2022-08-11T05:25:00;101356.16;;;25.66;40.31
22031;BME280;11179;52.106;21.024;2022-08-11T05:28:09;101361.06;;;25.78;40.61
22031;BME280;11179;52.106;21.024;2022-08-11T05:31:00;101358.53;;;25.85;40.07
22031;BME280;11179;52.106;21.024;2022-08-11T05:33:51;101360.13;;;26.03;39.41
22031;BME280;11179;52.106;21.024;2022-08-11T05:36:56;101359.28;;;26.02;39.29
22031;BME280;11179;52.106;21.024;2022-08-11T05:39:29;101359.66;;;26.51;39.12
22031;BME280;11179;52.106;21.024;2022-08-11T05:42:16;101345.00;;;26.87;38.70
22031;BME280;11179;52.106;21.024;2022-08-11T05:45:08;101350.59;;;27.08;36.97
22031;BME280;11179;52.106;21.024;2022-08-11T05:47:54;101340.91;;;27.30;36.86
22031;BME280;11179;52.106;21.024;2022-08-11T05:50:39;101344.34;;;27.35;36.72
22031;BME280;11179;52.106;21.024;2022-08-11T05:53:23;101338.94;;;27.75;36.21
22031;BME280;11179;52.106;21.024;2022-08-11T05:56:07;101344.03;;;28.06;35.87
22031;BME280;11179;52.106;21.024;2022-08-11T05:58:50;101343.03;;;28.39;34.96
22031;BME280;11179;52.106;21.024;2022-08-11T06:01:28;101339.34;;;28.51;34.67
22031;BME280;11179;52.106;21.024;2022-08-11T06:03:56;101343.34;;;28.49;34.40
22031;BME280;11179;52.106;21.024;2022-08-11T06:06:58;101341.81;;;28.64;33.95
22031;BME280;11179;52.106;21.024;2022-08-11T06:09:31;101346.44;;;28.97;33.84
22031;BME280;11179;52.106;21.024;2022-08-11T06:12:01;101334.97;;;29.33;33.64
22031;BME280;11179;52.106;21.024;2022-08-11T06:14:28;101347.28;;;29.57;33.49
22031;BME280;11179;52.106;21.024;2022-08-11T06:16:58;101343.16;;;29.66;32.82
22031;BME280;11179;52.106;21.024;2022-08-11T06:19:41;101347.69;;;29.71;31.96
22031;BME280;11179;52.106;21.024;2022-08-11T06:22:10;101345.53;;;29.64;31.84
22031;BME280;11179;52.106;21.024;2022-08-11T06:24:39;101349.81;;;29.30;31.85
22031;BME280;11179;52.106;21.024;2022-08-11T06:27:06;101348.16;;;29.13;32.67
22031;BME280;11179;52.106;21.024;2022-08-11T06:29:35;101346.75;;;29.51;32.27
22031;BME280;11179;52.106;21.024;2022-08-11T06:32:06;101357.91;;;29.60;32.02
22031;BME280;11179;52.106;21.024;2022-08-11T06:35:09;101367.97;;;29.13;32.05
22031;BME280;11179;52.106;21.024;2022-08-11T06:40:53;101337.66;;;28.34;32.82
22031;BME280;11179;52.106;21.024;2022-08-11T06:46:48;101340.34;;;28.30;33.21
22031;BME280;11179;52.106;21.024;2022-08-11T06:49:17;101336.13;;;28.76;32.78
22031;BME280;11179;52.106;21.024;2022-08-11T06:52:07;101329.22;;;29.45;32.72
22031;BME280;11179;52.106;21.024;2022-08-11T06:54:40;101325.31;;;29.97;31.90
22031;BME280;11179;52.106;21.024;2022-08-11T06:57:11;101340.59;;;30.43;31.39
22031;BME280;11179;52.106;21.024;2022-08-11T06:59:57;101342.25;;;29.94;31.29
22031;BME280;11179;52.106;21.024;2022-08-11T07:05:30;101329.53;;;29.72;31.58
22031;BME280;11179;52.106;21.024;2022-08-11T07:14:32;101321.84;;;31.12;30.95
22031;BME280;11179;52.106;21.024;2022-08-11T07:17:22;101329.44;;;30.70;30.15
22031;BME280;11179;52.106;21.024;2022-08-11T07:19:58;101335.44;;;30.84;30.45
22031;BME280;11179;52.106;21.024;2022-08-11T07:22:54;101326.25;;;30.90;30.64
22031;BME280;11179;52.106;21.024;2022-08-11T07:25:40;101328.28;;;30.90;30.17
22031;BME280;11179;52.106;21.024;2022-08-11T07:28:27;101331.44;;;30.85;30.41
22031;BME280;11179;52.106;21.024;2022-08-11T07:31:25;101326.16;;;30.48;30.62
22031;BME280;11179;52.106;21.024;2022-08-11T07:34:20;101324.00;;;30.10;30.46
22031;BME280;11179;52.106;21.024;2022-08-11T07:36:56;101337.22;;;29.12;31.47
22031;BME280;11179;52.106;21.024;2022-08-11T07:39:30;101325.97;;;28.60;31.83
22031;BME280;11179;52.106;21.024;2022-08-11T07:41:58;101324.28;;;28.71;32.03
22031;BME280;11179;52.106;21.024;2022-08-11T07:44:25;101320.88;;;28.65;32.45
22031;BME280;11179;52.106;21.024;2022-08-11T07:46:54;101323.66;;;28.77;32.14
22031;BME280;11179;52.106;21.024;2022-08-11T07:49:39;101320.56;;;29.38;32.27
22031;BME280;11179;52.106;21.024;2022-08-11T07:52:29;101315.91;;;29.62;31.51
22031;BME280;11179;52.106;21.024;2022-08-11T07:55:14;101324.88;;;29.95;30.85
22031;BME280;11179;52.106;21.024;2022-08-11T07:57:43;101322.47;;;29.97;30.72
22031;BME280;11179;52.106;21.024;2022-08-11T08:00:28;101324.84;;;29.48;30.89
22031;BME280;11179;52.106;21.024;2022-08-11T08:03:12;101318.47;;;29.07;31.55
22031;BME280;11179;52.106;21.024;2022-08-11T08:05:57;101324.59;;;29.09;31.36
22031;BME280;11179;52.106;21.024;2022-08-11T08:08:41;101326.69;;;28.85;31.58
22031;BME280;11179;52.106;21.024;2022-08-11T08:11:26;101312.69;;;28.88;31.69
22031;BME280;11179;52.106;21.024;2022-08-11T08:14:10;101310.66;;;28.89;31.43
22031;BME280;11179;52.106;21.024;2022-08-11T08:16:55;101306.59;;;29.45;31.06
22031;BME280;11179;52.106;21.024;2022-08-11T08:19:42;101317.22;;;29.80;30.28
22031;BME280;11179;52.106;21.024;2022-08-11T08:22:10;101312.75;;;29.79;30.18
22031;BME280;11179;52.106;21.024;2022-08-11T08:24:37;101309.09;;;29.94;30.27
22031;BME280;11179;52.106;21.024;2022-08-11T08:27:04;101303.91;;;30.15;30.01
22031;BME280;11179;52.106;21.024;2022-08-11T08:29:34;101312.16;;;30.05;29.64
22031;BME280;11179;52.106;21.024;2022-08-11T08:32:19;101301.38;;;29.16;30.29
22031;BME280;11179;52.106;21.024;2022-08-11T08:34:48;101309.44;;;29.02;30.40
22031;BME280;11179;52.106;21.024;2022-08-11T08:37:17;101307.88;;;28.24;31.13
22031;BME280;11179;52.106;21.024;2022-08-11T08:39:44;101294.34;;;28.30;31.33
22031;BME280;11179;52.106;21.024;2022-08-11T08:42:12;101303.41;;;28.23;30.93
22031;BME280;11179;52.106;21.024;2022-08-11T08:44:45;101289.78;;;28.13;31.27
22031;BME280;11179;52.106;21.024;2022-08-11T08:47:15;101297.03;;;28.26;31.62
22031;BME280;11179;52.106;21.024;2022-08-11T08:49:49;101293.31;;;28.50;32.42
22031;BME280;11179;52.106;21.024;2022-08-11T08:52:19;101302.19;;;28.36;31.18
22031;BME280;11179;52.106;21.024;2022-08-11T08:54:50;101300.94;;;28.09;31.71
22031;BME280;11179;52.106;21.024;2022-08-11T08:57:21;101295.78;;;28.11;31.92
22031;BME280;11179;52.106;21.024;2022-08-11T08:59:48;101307.69;;;28.05;32.00
22031;BME280;11179;52.106;21.024;2022-08-11T09:02:15;101309.94;;;28.52;31.43
22031;BME280;11179;52.106;21.024;2022-08-11T09:04:43;101299.97;;;29.10;30.70
22031;BME280;11179;52.106;21.024;2022-08-11T09:07:12;101298.69;;;28.79;29.89
22031;BME280;11179;52.106;21.024;2022-08-11T09:09:47;101289.78;;;28.13;30.39
22031;BME280;11179;52.106;21.024;2022-08-11T09:12:14;101301.53;;;28.15;30.83
22031;BME280;11179;52.106;21.024;2022-08-11T09:14:42;101295.75;;;28.24;30.64
22031;BME280;11179;52.106;21.024;2022-08-11T09:17:25;101294.00;;;28.71;30.80
22031;BME280;11179;52.106;21.024;2022-08-11T09:19:54;101301.31;;;28.72;30.33
22031;BME280;11179;52.106;21.024;2022-08-11T09:22:26;101286.81;;;28.34;30.68
22031;BME280;11179;52.106;21.024;2022-08-11T09:25:11;101290.91;;;28.76;30.53
22031;BME280;11179;52.106;21.024;2022-08-11T09:27:55;101278.38;;;28.90;30.27
22031;BME280;11179;52.106;21.024;2022-08-11T09:30:23;101282.84;;;28.91;30.25
22031;BME280;11179;52.106;21.024;2022-08-11T09:32:57;101270.97;;;29.13;30.28
22031;BME280;11179;52.106;21.024;2022-08-11T09:35:29;101278.75;;;29.63;29.94
22031;BME280;11179;52.106;21.024;2022-08-11T09:37:55;101279.31;;;29.37;29.63
22031;BME280;11179;52.106;21.024;2022-08-11T09:40:42;101291.97;;;29.12;30.07
22031;BME280;11179;52.106;21.024;2022-08-11T09:43:10;101276.00;;;28.64;30.48
22031;BME280;11179;52.106;21.024;2022-08-11T09:45:56;101265.75;;;28.71;30.67
22031;BME280;11179;52.106;21.024;2022-08-11T09:48:24;101271.63;;;29.22;29.84
22031;BME280;11179;52.106;21.024;2022-08-11T09:50:54;101269.22;;;29.68;29.74
22031;BME280;11179;52.106;21.024;2022-08-11T09:53:21;101277.31;;;29.38;30.00
22031;BME280;11179;52.106;21.024;2022-08-11T09:55:48;101274.56;;;28.98;30.20
22031;BME280;11179;52.106;21.024;2022-08-11T09:58:14;101271.16;;;28.92;29.22
22031;BME280;11179;52.106;21.024;2022-08-11T10:00:46;101265.84;;;28.75;30.16
22031;BME280;11179;52.106;21.024;2022-08-11T10:03:15;101260.63;;;28.61;30.05
22031;BME280;11179;52.106;21.024;2022-08-11T10:05:46;101261.38;;;28.34;30.62
22031;BME280;11179;52.106;21.024;2022-08-11T10:08:31;101257.66;;;27.45;32.10
22031;BME280;11179;52.106;21.024;2022-08-11T10:10:58;101256.16;;;27.71;32.13
22031;BME280;11179;52.106;21.024;2022-08-11T10:13:32;101254.09;;;28.33;31.62
22031;BME280;11179;52.106;21.024;2022-08-11T10:16:22;101244.28;;;28.98;30.93
22031;BME280;11179;52.106;21.024;2022-08-11T10:18:49;101255.00;;;29.21;30.15
22031;BME280;11179;52.106;21.024;2022-08-11T10:21:28;101250.03;;;28.58;30.08
22031;BME280;11179;52.106;21.024;2022-08-11T10:23:57;101237.56;;;28.47;30.67
22031;BME280;11179;52.106;21.024;2022-08-11T10:26:42;101251.00;;;28.38;30.52
22031;BME280;11179;52.106;21.024;2022-08-11T10:29:31;101232.63;;;27.92;30.50
22031;BME280;11179;52.106;21.024;2022-08-11T10:32:28;101218.63;;;28.07;31.22
22031;BME280;11179;52.106;21.024;2022-08-11T10:35:14;101217.25;;;28.69;30.77
22031;BME280;11179;52.106;21.024;2022-08-11T10:37:41;101214.34;;;28.81;30.19
22031;BME280;11179;52.106;21.024;2022-08-11T10:40:09;101213.88;;;28.79;31.01
22031;BME280;11179;52.106;21.024;2022-08-11T10:42:37;101213.56;;;28.97;30.25
22031;BME280;11179;52.106;21.024;2022-08-11T10:45:22;101215.16;;;29.41;29.82
22031;BME280;11179;52.106;21.024;2022-08-11T10:48:07;101205.66;;;29.49;30.45
22031;BME280;11179;52.106;21.024;2022-08-11T10:50:35;101201.44;;;29.59;30.39
22031;BME280;11179;52.106;21.024;2022-08-11T10:53:19;101199.69;;;28.92;30.11
22031;BME280;11179;52.106;21.024;2022-08-11T10:56:04;101206.03;;;28.45;31.10
22031;BME280;11179;52.106;21.024;2022-08-11T10:58:50;101203.03;;;28.26;31.51
22031;BME280;11179;52.106;21.024;2022-08-11T11:03:51;101194.31;;;27.78;32.47
22031;BME280;11179;52.106;21.024;2022-08-11T11:06:21;101197.22;;;27.33;32.90
22031;BME280;11179;52.106;21.024;2022-08-11T11:11:26;101178.97;;;26.82;33.21
22031;BME280;11179;52.106;21.024;2022-08-11T11:14:31;101180.75;;;26.87;33.22
22031;BME280;11179;52.106;21.024;2022-08-11T11:17:25;101181.00;;;27.18;33.04
22031;BME280;11179;52.106;21.024;2022-08-11T11:20:13;101179.28;;;27.26;33.07
22031;BME280;11179;52.106;21.024;2022-08-11T11:22:42;101168.13;;;27.41;32.92
22031;BME280;11179;52.106;21.024;2022-08-11T11:25:45;101173.31;;;27.39;32.96
22031;BME280;11179;52.106;21.024;2022-08-11T11:37:04;101182.22;;;26.18;34.48
22031;BME280;11179;52.106;21.024;2022-08-11T11:39:31;101167.88;;;26.32;34.24
22031;BME280;11179;52.106;21.024;2022-08-11T11:42:01;101161.19;;;26.69;34.35
22031;BME280;11179;52.106;21.024;2022-08-11T11:44:28;101155.75;;;27.22;33.35
22031;BME280;11179;52.106;21.024;2022-08-11T11:46:55;101148.59;;;27.61;32.64
22031;BME280;11179;52.106;21.024;2022-08-11T11:49:24;101145.03;;;27.76;32.01
22031;BME280;11179;52.106;21.024;2022-08-11T11:51:51;101137.94;;;27.94;31.54
22031;BME280;11179;52.106;21.024;2022-08-11T11:54:21;101136.66;;;27.92;31.99
22031;BME280;11179;52.106;21.024;2022-08-11T11:56:48;101126.28;;;27.43;31.87
22031;BME280;11179;52.106;21.024;2022-08-11T11:59:21;101134.44;;;26.76;32.79
22031;BME280;11179;52.106;21.024;2022-08-11T12:02:07;101141.22;;;26.62;33.06
22031;BME280;11179;52.106;21.024;2022-08-11T12:04:33;101128.22;;;26.37;33.02
22031;BME280;11179;52.106;21.024;2022-08-11T12:07:01;101131.97;;;26.29;33.31
22031;BME280;11179;52.106;21.024;2022-08-11T12:09:46;101135.31;;;26.01;33.54
22031;BME280;11179;52.106;21.024;2022-08-11T12:12:12;101138.16;;;25.81;34.05
22031;BME280;11179;52.106;21.024;2022-08-11T12:14:57;101127.56;;;25.98;34.22
22031;BME280;11179;52.106;21.024;2022-08-11T12:17:23;101132.13;;;26.45;33.38
22031;BME280;11179;52.106;21.024;2022-08-11T12:19:49;101126.25;;;26.83;33.23
22031;BME280;11179;52.106;21.024;2022-08-11T12:22:16;101112.78;;;27.00;33.52
22031;BME280;11179;52.106;21.024;2022-08-11T12:25:01;101109.84;;;27.09;32.95
22031;BME280;11179;52.106;21.024;2022-08-11T12:27:45;101113.47;;;26.97;33.41
22031;BME280;11179;52.106;21.024;2022-08-11T12:30:11;101110.72;;;26.77;33.15
22031;BME280;11179;52.106;21.024;2022-08-11T12:32:38;101121.59;;;26.54;33.26
22031;BME280;11179;52.106;21.024;2022-08-11T12:35:05;101115.34;;;26.36;33.82
22031;BME280;11179;52.106;21.024;2022-08-11T12:37:34;101121.22;;;26.43;33.27
22031;BME280;11179;52.106;21.024;2022-08-11T12:40:04;101113.59;;;26.44;33.05
22031;BME280;11179;52.106;21.024;2022-08-11T12:42:51;101108.34;;;26.54;32.83
22031;BME280;11179;52.106;21.024;2022-08-11T12:45:37;101103.19;;;26.56;32.56
22031;BME280;11179;52.106;21.024;2022-08-11T12:48:07;101103.94;;;26.32;32.48
22031;BME280;11179;52.106;21.024;2022-08-11T12:50:56;101116.34;;;26.11;32.46
22031;BME280;11179;52.106;21.024;2022-08-11T12:53:53;101107.38;;;26.17;32.69
22031;BME280;11179;52.106;21.024;2022-08-11T12:56:20;101113.69;;;26.35;33.21
22031;BME280;11179;52.106;21.024;2022-08-11T12:59:06;101108.34;;;26.54;32.79
22031;BME280;11179;52.106;21.024;2022-08-11T13:01:51;101102.06;;;26.94;33.11
22031;BME280;11179;52.106;21.024;2022-08-11T13:04:36;101097.38;;;27.22;31.55
22031;BME280;11179;52.106;21.024;2022-08-11T13:07:16;101131.91;;;27.19;31.88
22031;BME280;11179;52.106;21.024;2022-08-11T13:09:42;101164.09;;;26.28;35.24
22031;BME280;11179;52.106;21.024;2022-08-11T13:12:08;101145.34;;;25.11;38.29
22031;BME280;11179;52.106;21.024;2022-08-11T13:14:53;101144.00;;;24.61;40.68
22031;BME280;11179;52.106;21.024;2022-08-11T13:17:20;101150.16;;;24.29;42.15
22031;BME280;11179;52.106;21.024;2022-08-11T13:19:46;101149.16;;;23.99;43.55
22031;BME280;11179;52.106;21.024;2022-08-11T13:22:12;101147.84;;;23.79;43.12
22031;BME280;11179;52.106;21.024;2022-08-11T13:24:40;101144.53;;;23.69;43.14
22031;BME280;11179;52.106;21.024;2022-08-11T13:27:06;101139.75;;;23.69;43.67
22031;BME280;11179;52.106;21.024;2022-08-11T13:29:32;101138.88;;;23.60;44.15
22031;BME280;11179;52.106;21.024;2022-08-11T13:32:00;101132.16;;;23.70;44.56
22031;BME280;11179;52.106;21.024;2022-08-11T13:34:27;101135.31;;;23.68;44.66
22031;BME280;11179;52.106;21.024;2022-08-11T13:36:57;101133.97;;;23.74;45.51
22031;BME280;11179;52.106;21.024;2022-08-11T13:39:27;101129.03;;;23.97;45.03
22031;BME280;11179;52.106;21.024;2022-08-11T13:41:54;101128.38;;;24.09;44.81
22031;BME280;11179;52.106;21.024;2022-08-11T13:44:21;101134.16;;;24.30;43.98
22031;BME280;11179;52.106;21.024;2022-08-11T13:46:49;101140.72;;;24.51;43.67
22031;BME280;11179;52.106;21.024;2022-08-11T13:49:16;101140.34;;;24.70;44.07
22031;BME280;11179;52.106;21.024;2022-08-11T13:51:43;101133.06;;;24.69;43.95
22031;BME280;11179;52.106;21.024;2022-08-11T13:54:17;101127.63;;;24.63;44.69
22031;BME280;11179;52.106;21.024;2022-08-11T13:56:46;101120.72;;;24.52;44.14
22031;BME280;11179;52.106;21.024;2022-08-11T13:59:13;101134.31;;;24.33;43.79
22031;BME280;11179;52.106;21.024;2022-08-11T14:01:41;101137.44;;;24.14;43.72
22031;BME280;11179;52.106;21.024;2022-08-11T14:04:10;101138.44;;;24.10;43.20
22031;BME280;11179;52.106;21.024;2022-08-11T14:06:41;101143.56;;;24.08;42.40
22031;BME280;11179;52.106;21.024;2022-08-11T14:09:09;101140.25;;;24.23;41.98
22031;BME280;11179;52.106;21.024;2022-08-11T14:11:39;101139.56;;;24.43;41.34
22031;BME280;11179;52.106;21.024;2022-08-11T14:14:25;101136.41;;;24.62;41.05
22031;BME280;11179;52.106;21.024;2022-08-11T14:16:54;101136.69;;;24.69;39.93
22031;BME280;11179;52.106;21.024;2022-08-11T14:19:23;101135.00;;;24.77;39.90
22031;BME280;11179;52.106;21.024;2022-08-11T14:21:50;101140.28;;;24.87;40.15
22031;BME280;11179;52.106;21.024;2022-08-11T14:24:33;101151.06;;;24.76;40.25
22031;BME280;11179;52.106;21.024;2022-08-11T14:26:59;101146.94;;;24.65;40.15
22031;BME280;11179;52.106;21.024;2022-08-11T14:29:26;101146.19;;;24.47;40.71
22031;BME280;11179;52.106;21.024;2022-08-11T14:31:54;101141.22;;;24.27;41.17
22031;BME280;11179;52.106;21.024;2022-08-11T14:34:23;101133.47;;;24.15;40.75
22031;BME280;11179;52.106;21.024;2022-08-11T14:36:56;101129.22;;;24.09;41.56
22031;BME280;11179;52.106;21.024;2022-08-11T14:39:27;101124.25;;;24.06;41.30
22031;BME280;11179;52.106;21.024;2022-08-11T14:41:59;101124.72;;;24.00;41.42
22031;BME280;11179;52.106;21.024;2022-08-11T14:44:47;101132.50;;;23.94;41.75
22031;BME280;11179;52.106;21.024;2022-08-11T14:47:34;101126.06;;;23.94;42.21
22031;BME280;11179;52.106;21.024;2022-08-11T14:50:01;101123.25;;;23.94;42.50
22031;BME280;11179;52.106;21.024;2022-08-11T14:52:29;101115.81;;;23.98;41.74
22031;BME280;11179;52.106;21.024;2022-08-11T14:54:56;101112.84;;;24.03;41.98
22031;BME280;11179;52.106;21.024;2022-08-11T14:57:40;101111.53;;;24.09;42.46
22031;BME280;11179;52.106;21.024;2022-08-11T15:00:09;101106.25;;;24.16;42.72
22031;BME280;11179;52.106;21.024;2022-08-11T15:02:37;101104.75;;;24.18;43.15
22031;BME280;11179;52.106;21.024;2022-08-11T15:05:23;101088.09;;;24.22;43.27
22031;BME280;11179;52.106;21.024;2022-08-11T15:07:49;101084.13;;;24.23;42.95
22031;BME280;11179;52.106;21.024;2022-08-11T15:10:17;101086.78;;;24.19;43.47
22031;BME280;11179;52.106;21.024;2022-08-11T15:12:44;101095.69;;;24.13;43.53
22031;BME280;11179;52.106;21.024;2022-08-11T15:15:11;101099.31;;;24.05;43.29
22031;BME280;11179;52.106;21.024;2022-08-11T15:17:57;101097.00;;;23.98;42.88
22031;BME280;11179;52.106;21.024;2022-08-11T15:20:25;101092.56;;;23.97;43.33
22031;BME280;11179;52.106;21.024;2022-08-11T15:23:09;101101.97;;;24.01;42.68
22031;BME280;11179;52.106;21.024;2022-08-11T15:25:59;101098.16;;;23.97;42.93
22031;BME280;11179;52.106;21.024;2022-08-11T15:28:27;101089.13;;;23.91;42.78
22031;BME280;11179;52.106;21.024;2022-08-11T15:31:13;101095.88;;;23.90;42.97
22031;BME280;11179;52.106;21.024;2022-08-11T15:34:01;101093.22;;;23.85;43.53
22031;BME280;11179;52.106;21.024;2022-08-11T15:36:46;101096.34;;;23.84;43.01
22031;BME280;11179;52.106;21.024;2022-08-11T15:39:35;101091.59;;;23.76;42.89
22031;BME280;11179;52.106;21.024;2022-08-11T15:42:06;101090.91;;;23.70;42.82
22031;BME280;11179;52.106;21.024;2022-08-11T15:44:56;101086.47;;;23.69;42.76
22031;BME280;11179;52.106;21.024;2022-08-11T15:47:48;101088.28;;;23.65;42.88
22031;BME280;11179;52.106;21.024;2022-08-11T15:50:23;101086.63;;;23.64;42.84
22031;BME280;11179;52.106;21.024;2022-08-11T15:52:55;101088.41;;;23.60;42.56
22031;BME280;11179;52.106;21.024;2022-08-11T15:55:23;101087.44;;;23.56;42.54
22031;BME280;11179;52.106;21.024;2022-08-11T15:57:51;101085.59;;;23.51;42.56
22031;BME280;11179;52.106;21.024;2022-08-11T16:00:36;101086.75;;;23.50;42.46
22031;BME280;11179;52.106;21.024;2022-08-11T16:03:23;101091.88;;;23.48;42.43
22031;BME280;11179;52.106;21.024;2022-08-11T16:06:25;101082.81;;;23.43;42.63
22031;BME280;11179;52.106;21.024;2022-08-11T16:08:52;101081.81;;;23.39;43.26
22031;BME280;11179;52.106;21.024;2022-08-11T16:11:21;101076.19;;;23.39;43.76
22031;BME280;11179;52.106;21.024;2022-08-11T16:13:47;101072.56;;;23.38;44.19
22031;BME280;11179;52.106;21.024;2022-08-11T16:16:32;101077.03;;;23.39;44.03
22031;BME280;11179;52.106;21.024;2022-08-11T16:19:00;101081.28;;;23.37;44.42
22031;BME280;11179;52.106;21.024;2022-08-11T16:21:32;101075.84;;;23.32;44.19
22031;BME280;11179;52.106;21.024;2022-08-11T16:23:59;101073.22;;;23.27;43.56
22031;BME280;11179;52.106;21.024;2022-08-11T16:26:26;101079.97;;;23.26;44.31
22031;BME280;11179;52.106;21.024;2022-08-11T16:28:55;101076.34;;;23.25;44.41
22031;BME280;11179;52.106;21.024;2022-08-11T16:31:22;101076.97;;;23.22;44.29
22031;BME280;11179;52.106;21.024;2022-08-11T16:33:50;101081.75;;;23.21;44.57
22031;BME280;11179;52.106;21.024;2022-08-11T16:36:17;101076.81;;;23.18;44.92
22031;BME280;11179;52.106;21.024;2022-08-11T16:39:03;101079.44;;;23.15;44.96
22031;BME280;11179;52.106;21.024;2022-08-11T16:41:31;101071.69;;;23.12;45.52
22031;BME280;11179;52.106;21.024;2022-08-11T16:44:17;101067.88;;;23.08;45.60
22031;BME280;11179;52.106;21.024;2022-08-11T16:47:02;101065.56;;;23.01;45.05
22031;BME280;11179;52.106;21.024;2022-08-11T16:49:37;101063.22;;;22.95;45.26
22031;BME280;11179;52.106;21.024;2022-08-11T16:52:05;101066.50;;;22.88;45.59
22031;BME280;11179;52.106;21.024;2022-08-11T16:54:35;101063.00;;;22.82;45.59
22031;BME280;11179;52.106;21.024;2022-08-11T16:57:22;101067.59;;;22.78;45.92
22031;BME280;11179;52.106;21.024;2022-08-11T17:00:09;101075.31;;;22.73;45.59
22031;BME280;11179;52.106;21.024;2022-08-11T17:03:00;101073.81;;;22.67;45.83
22031;BME280;11179;52.106;21.024;2022-08-11T17:05:49;101070.97;;;22.58;45.62